createdAt,value
2023-01-04T00:04:50.820Z,3
2023-01-04T00:09:50.830Z,4
2023-01-04T00:14:50.983Z,3
2023-01-04T00:19:50.745Z,3
2023-01-04T00:24:50.651Z,3
2023-01-04T00:29:51.085Z,3
2023-01-04T00:34:50.850Z,3
2023-01-04T00:39:50.571Z,2
2023-01-04T00:44:50.950Z,2
2023-01-04T00:49:50.937Z,2
2023-01-04T00:54:50.778Z,3
2023-01-04T00:59:51.206Z,3
2023-01-04T01:04:50.654Z,3
2023-01-04T01:09:50.846Z,2
2023-01-04T01:14:52.831Z,3
2023-01-04T01:19:50.848Z,3
2023-01-04T01:24:50.608Z,3
2023-01-04T01:29:50.857Z,5
2023-01-04T01:34:50.820Z,5
2023-01-04T01:39:50.945Z,6
2023-01-04T01:44:50.933Z,7
2023-01-04T01:49:50.895Z,7
2023-01-04T01:54:50.589Z,7
2023-01-04T01:59:50.579Z,8
2023-01-04T02:04:50.914Z,9
2023-01-04T02:09:50.741Z,8
2023-01-04T02:14:50.588Z,8
2023-01-04T02:20:02.505Z,11
2023-01-04T02:25:03.098Z,10
2023-01-04T02:30:03.260Z,9
2023-01-04T02:34:58.508Z,9
2023-01-04T02:39:50.685Z,10
2023-01-04T02:44:50.651Z,10
2023-01-04T02:49:50.772Z,9
2023-01-04T02:54:50.743Z,8
2023-01-04T02:59:57.992Z,8
2023-01-04T03:04:58.770Z,7
2023-01-04T03:09:50.765Z,7
2023-01-04T03:14:50.528Z,7
2023-01-04T03:19:50.827Z,7
2023-01-04T03:24:51.288Z,7
2023-01-04T03:29:50.676Z,8
2023-01-04T03:34:50.787Z,8
2023-01-04T03:40:08.558Z,8
2023-01-04T03:44:50.577Z,7
2023-01-04T03:49:50.683Z,7
2023-01-04T03:54:50.654Z,7
2023-01-04T03:59:52.178Z,7
2023-01-04T04:04:50.952Z,7
2023-01-04T04:09:50.728Z,7
2023-01-04T04:14:50.717Z,7
2023-01-04T04:19:50.640Z,7
2023-01-04T04:24:50.480Z,6
2023-01-04T04:29:50.766Z,7
2023-01-04T04:34:50.772Z,7
2023-01-04T04:39:50.815Z,6
2023-01-04T04:44:50.444Z,5
2023-01-04T04:49:50.505Z,5
2023-01-04T04:54:50.888Z,5
2023-01-04T04:59:50.446Z,5
2023-01-04T05:04:50.605Z,5
2023-01-04T05:09:50.710Z,5
2023-01-04T05:14:50.540Z,6
2023-01-04T05:19:50.423Z,6
2023-01-04T05:24:50.663Z,7
2023-01-04T05:29:50.672Z,6
2023-01-04T05:34:50.775Z,6
2023-01-04T05:39:50.575Z,7
2023-01-04T05:44:50.445Z,7
2023-01-04T05:49:50.660Z,7
2023-01-04T05:54:50.571Z,7
2023-01-04T05:59:50.415Z,7
2023-01-04T06:04:58.121Z,7
2023-01-04T06:09:50.526Z,6
2023-01-04T06:14:50.510Z,6
2023-01-04T06:19:50.434Z,6
2023-01-04T06:24:50.487Z,6
2023-01-04T06:29:50.636Z,6
2023-01-04T06:34:50.550Z,6
2023-01-04T06:39:50.610Z,6
2023-01-04T06:44:50.612Z,6
2023-01-04T06:49:50.682Z,6
2023-01-04T06:54:50.460Z,6
2023-01-04T06:59:50.468Z,6
2023-01-04T07:04:50.492Z,6
2023-01-04T07:09:50.519Z,6
2023-01-04T07:14:50.797Z,5
2023-01-04T07:19:50.545Z,5
2023-01-04T07:24:50.664Z,5
2023-01-04T07:29:50.435Z,5
2023-01-04T07:34:50.472Z,5
2023-01-04T07:39:50.685Z,5
2023-01-04T07:44:50.440Z,5
2023-01-04T07:49:50.314Z,5
2023-01-04T07:54:50.459Z,5
2023-01-04T07:59:50.865Z,5
2023-01-04T08:04:50.664Z,5
2023-01-04T08:09:50.393Z,5
2023-01-04T08:14:50.382Z,5
2023-01-04T08:19:50.387Z,5
2023-01-04T08:24:50.620Z,5
2023-01-04T08:29:50.514Z,5
2023-01-04T08:34:50.592Z,4
2023-01-04T08:39:50.445Z,4
2023-01-04T08:44:55.542Z,4
2023-01-04T08:49:50.540Z,4
2023-01-04T08:54:50.489Z,4
2023-01-04T08:59:50.241Z,4
2023-01-04T09:04:50.823Z,4
2023-01-04T09:09:50.275Z,4
2023-01-04T09:14:50.275Z,3
2023-01-04T09:19:50.434Z,3
2023-01-04T09:24:50.260Z,3
2023-01-04T09:29:50.797Z,3
2023-01-04T09:34:50.284Z,3
2023-01-04T09:39:50.386Z,3
2023-01-04T09:45:22.717Z,3
2023-01-04T09:49:50.498Z,2
2023-01-04T09:54:50.284Z,2
2023-01-04T09:59:53.307Z,2
2023-01-04T10:04:50.733Z,2
2023-01-04T10:09:50.241Z,2
2023-01-04T10:14:50.450Z,2
2023-01-04T10:24:50.369Z,2
2023-01-04T10:29:55.264Z,2
2023-01-04T10:34:51.975Z,1
2023-01-04T10:39:51.455Z,1
2023-01-04T10:44:50.315Z,2
2023-01-04T10:49:52.637Z,2
2023-01-04T10:54:51.896Z,2
2023-01-04T10:59:52.945Z,2
2023-01-04T11:04:50.291Z,2
2023-01-04T11:09:51.781Z,2
2023-01-04T11:14:50.545Z,2
2023-01-04T11:19:51.840Z,2
2023-01-04T11:25:32.620Z,2
2023-01-04T11:29:50.152Z,2
2023-01-04T11:34:51.127Z,2
2023-01-04T11:39:50.732Z,2
2023-01-04T11:44:50.104Z,2
2023-01-04T11:49:50.177Z,2
2023-01-04T11:54:50.273Z,2
2023-01-04T12:00:06.465Z,2
2023-01-04T12:04:51.354Z,2
2023-01-04T12:09:50.520Z,2
2023-01-04T12:14:50.381Z,2
2023-01-04T12:19:50.404Z,2
2023-01-04T12:24:55.297Z,2
2023-01-04T12:29:54.975Z,2
2023-01-04T12:34:50.328Z,2
2023-01-04T12:39:50.289Z,2
2023-01-04T12:44:50.179Z,2
2023-01-04T12:49:51.734Z,1
2023-01-04T12:54:51.664Z,1
2023-01-04T12:59:50.099Z,1
2023-01-04T13:05:09.404Z,1
2023-01-04T13:09:52.455Z,1
2023-01-04T13:14:50.311Z,1
2023-01-04T13:19:50.770Z,1
2023-01-04T13:24:50.054Z,1
2023-01-04T13:29:50.175Z,1
2023-01-04T13:34:50.180Z,1
2023-01-04T13:39:51.371Z,1
2023-01-04T13:45:18.678Z,1
2023-01-04T13:49:50.269Z,1
2023-01-04T13:54:50.049Z,1
2023-01-04T13:59:50.164Z,1
2023-01-04T14:04:50.068Z,1
2023-01-04T14:09:52.633Z,1
2023-01-04T14:14:51.760Z,1
2023-01-04T14:19:51.757Z,1
2023-01-04T14:29:50.156Z,1
2023-01-04T14:34:50.723Z,1
2023-01-04T14:39:50.318Z,1
2023-01-04T14:44:50.353Z,1
2023-01-04T14:49:50.336Z,1
2023-01-04T14:54:50.044Z,1
2023-01-04T14:59:50.194Z,1
2023-01-04T15:04:50.308Z,1
2023-01-04T15:09:50.160Z,1
2023-01-04T15:14:50.030Z,1
2023-01-04T15:19:50.345Z,1
2023-01-04T15:24:49.948Z,1
2023-01-04T15:29:50.020Z,1
2023-01-04T15:34:50.823Z,1
2023-01-04T15:39:50.024Z,1
2023-01-04T15:44:49.971Z,1
2023-01-04T15:49:49.914Z,1
2023-01-04T15:54:49.931Z,1
2023-01-04T15:59:49.977Z,1
2023-01-04T16:04:50.274Z,1
2023-01-04T16:09:50.045Z,1
2023-01-04T16:14:50.077Z,1
2023-01-04T16:19:49.983Z,1
2023-01-04T16:25:11.686Z,1
2023-01-04T16:29:50.032Z,1
2023-01-04T16:34:49.911Z,1
2023-01-04T16:40:05.975Z,1
2023-01-04T16:44:49.877Z,1
2023-01-04T16:49:50.486Z,1
2023-01-04T16:54:50.002Z,1
2023-01-04T16:59:50.242Z,1
2023-01-04T17:04:50.152Z,1
2023-01-04T17:09:50.508Z,1
2023-01-04T17:15:07.884Z,1
2023-01-04T17:19:50.292Z,1
2023-01-04T17:24:49.969Z,2
2023-01-04T17:29:50.090Z,2
2023-01-04T17:34:50.115Z,2
2023-01-04T17:39:50.155Z,2
2023-01-04T17:44:50.095Z,2
2023-01-04T17:49:49.957Z,2
2023-01-04T17:54:49.826Z,2
2023-01-04T17:59:50.112Z,2
2023-01-04T18:04:49.890Z,2
2023-01-04T18:09:50.161Z,2
2023-01-04T18:14:50.117Z,2
2023-01-04T18:19:50.072Z,2
2023-01-04T18:24:49.799Z,2
2023-01-04T18:29:49.946Z,2
2023-01-04T18:34:49.974Z,2
2023-01-04T18:39:50.056Z,2
2023-01-04T18:44:50.263Z,2
2023-01-04T18:49:50.357Z,2
2023-01-04T18:54:50.221Z,2
2023-01-04T18:59:50.177Z,2
2023-01-04T19:04:49.973Z,2
2023-01-04T19:09:49.802Z,2
2023-01-04T19:14:49.942Z,3
2023-01-04T19:19:50.632Z,3
2023-01-04T19:24:50.209Z,3
2023-01-04T19:29:49.670Z,3
2023-01-04T19:34:49.810Z,3
2023-01-04T19:39:49.962Z,3
2023-01-04T19:44:49.755Z,3
2023-01-04T19:49:50.250Z,2
2023-01-04T19:54:50.105Z,2
2023-01-04T19:59:50.486Z,2
2023-01-04T20:04:50.021Z,2
2023-01-04T20:09:49.976Z,2
2023-01-04T20:14:49.848Z,2
2023-01-04T20:19:50.020Z,2
2023-01-04T20:24:49.821Z,3
2023-01-04T20:29:49.794Z,3
2023-01-04T20:34:50.051Z,2
2023-01-04T20:39:49.859Z,2
2023-01-04T20:44:49.888Z,2
2023-01-04T20:49:50.018Z,2
2023-01-04T20:54:49.961Z,2
2023-01-04T20:59:49.973Z,2
2023-01-04T21:04:50.388Z,2
2023-01-04T21:09:50.059Z,2
2023-01-04T21:14:50.026Z,2
2023-01-04T21:19:49.731Z,2
2023-01-04T21:24:49.831Z,2
2023-01-04T21:29:49.932Z,2
2023-01-04T21:34:49.804Z,2
2023-01-04T21:39:50.026Z,2
2023-01-04T21:44:49.676Z,2
2023-01-04T21:49:49.883Z,2
2023-01-04T21:54:50.123Z,2
2023-01-04T21:59:49.949Z,2
2023-01-04T22:04:49.643Z,2
2023-01-04T22:09:55.433Z,2
2023-01-04T22:14:49.911Z,2
2023-01-04T22:19:49.883Z,2
2023-01-04T22:24:49.806Z,2
2023-01-04T22:29:49.686Z,2
2023-01-04T22:34:49.921Z,2
2023-01-04T22:39:49.810Z,2
2023-01-04T22:44:50.084Z,2
2023-01-04T22:49:49.870Z,2
2023-01-04T22:54:49.864Z,2
2023-01-04T22:59:49.755Z,2
2023-01-04T23:04:49.724Z,2
2023-01-04T23:09:49.836Z,2
2023-01-04T23:14:49.615Z,2
2023-01-04T23:19:49.895Z,2
2023-01-04T23:24:49.582Z,2
2023-01-04T23:29:49.948Z,2
2023-01-04T23:34:50.113Z,2
2023-01-04T23:39:49.743Z,2
2023-01-04T23:44:49.650Z,2
2023-01-04T23:49:49.810Z,2
2023-01-04T23:54:49.836Z,2
2023-01-04T23:59:49.664Z,2
